createdAt,value
2022-10-28T00:01:03.025Z,88
2022-10-28T00:02:07.767Z,88
2022-10-28T00:03:12.654Z,89
2022-10-28T00:04:16.919Z,89
2022-10-28T00:05:21.670Z,89
2022-10-28T00:06:26.181Z,89
2022-10-28T00:07:30.614Z,89
2022-10-28T00:08:35.107Z,89
2022-10-28T00:09:39.298Z,89
2022-10-28T00:10:44.369Z,89
2022-10-28T00:11:49.349Z,89
2022-10-28T00:12:53.529Z,89
2022-10-28T00:13:57.618Z,90
2022-10-28T00:15:02.089Z,89
2022-10-28T00:16:06.777Z,89
2022-10-28T00:17:11.506Z,89
2022-10-28T00:18:16.222Z,89
2022-10-28T00:19:20.725Z,89
2022-10-28T00:20:25.134Z,89
2022-10-28T00:21:29.393Z,89
2022-10-28T00:22:34.190Z,89
2022-10-28T00:23:38.765Z,89
2022-10-28T00:24:43.421Z,89
2022-10-28T00:25:47.689Z,90
2022-10-28T00:26:52.781Z,89
2022-10-28T00:27:56.873Z,89
2022-10-28T00:29:01.643Z,89
2022-10-28T00:30:09.102Z,89
2022-10-28T00:31:13.682Z,89
2022-10-28T00:32:17.845Z,90
2022-10-28T00:33:22.684Z,90
2022-10-28T00:34:27.209Z,90
2022-10-28T00:35:32.133Z,90
2022-10-28T00:36:36.776Z,90
2022-10-28T00:37:40.897Z,90
2022-10-28T00:38:46.001Z,89
2022-10-28T00:39:50.714Z,89
2022-10-28T00:40:55.673Z,89
2022-10-28T00:42:00.359Z,90
2022-10-28T00:43:04.934Z,89
2022-10-28T00:44:09.665Z,89
2022-10-28T00:45:24.637Z,89
2022-10-28T00:46:28.913Z,89
2022-10-28T00:47:39.050Z,89
2022-10-28T00:48:46.481Z,89
2022-10-28T00:49:50.925Z,89
2022-10-28T00:50:55.433Z,89
2022-10-28T00:52:00.493Z,89
2022-10-28T00:53:05.181Z,89
2022-10-28T00:54:15.174Z,89
2022-10-28T00:55:19.408Z,89
2022-10-28T00:56:24.009Z,89
2022-10-28T00:57:28.913Z,89
2022-10-28T00:58:33.305Z,89
2022-10-28T00:59:37.893Z,89
2022-10-28T01:00:42.568Z,89
2022-10-28T01:01:47.287Z,89
2022-10-28T01:02:51.653Z,89
2022-10-28T01:03:56.149Z,89
2022-10-28T01:05:00.685Z,89
2022-10-28T01:06:05.549Z,89
2022-10-28T01:07:10.650Z,89
2022-10-28T01:08:15.277Z,89
2022-10-28T01:09:19.773Z,89
2022-10-28T01:10:23.902Z,89
2022-10-28T01:11:36.461Z,89
2022-10-28T01:12:49.053Z,89
2022-10-28T01:13:58.557Z,89
2022-10-28T01:15:13.237Z,89
2022-10-28T01:16:23.137Z,89
2022-10-28T01:17:37.682Z,89
2022-10-28T01:18:53.012Z,89
2022-10-28T01:20:02.652Z,89
2022-10-28T01:21:17.449Z,89
2022-10-28T01:22:32.396Z,89
2022-10-28T01:23:41.873Z,89
2022-10-28T01:24:54.737Z,89
2022-10-28T01:26:09.242Z,89
2022-10-28T01:27:16.517Z,89
2022-10-28T01:28:31.440Z,89
2022-10-28T01:29:36.061Z,89
2022-10-28T01:30:50.801Z,89
2022-10-28T01:32:05.556Z,89
2022-10-28T01:33:15.496Z,89
2022-10-28T01:34:19.692Z,88
2022-10-28T01:35:32.767Z,89
2022-10-28T01:36:45.452Z,89
2022-10-28T01:37:49.858Z,89
2022-10-28T01:38:56.947Z,89
2022-10-28T01:40:11.833Z,89
2022-10-28T01:41:21.816Z,89
2022-10-28T01:42:31.255Z,90
2022-10-28T01:43:35.701Z,89
2022-10-28T01:44:42.867Z,89
2022-10-28T01:45:53.238Z,90
2022-10-28T01:47:07.884Z,90
2022-10-28T01:48:17.652Z,89
2022-10-28T01:49:22.216Z,89
2022-10-28T01:50:27.025Z,89
2022-10-28T01:51:41.960Z,90
2022-10-28T01:52:46.593Z,90
2022-10-28T01:53:51.069Z,89
2022-10-28T01:54:55.763Z,89
2022-10-28T01:56:02.920Z,90
2022-10-28T01:57:07.496Z,90
2022-10-28T01:58:12.214Z,89
2022-10-28T01:59:16.969Z,89
2022-10-28T02:00:21.224Z,89
2022-10-28T02:01:25.713Z,89
2022-10-28T02:02:30.017Z,89
2022-10-28T02:03:34.529Z,89
2022-10-28T02:04:39.268Z,90
2022-10-28T02:05:43.621Z,89
2022-10-28T02:06:47.762Z,89
2022-10-28T02:07:52.484Z,89
2022-10-28T02:08:57.393Z,90
2022-10-28T02:10:05.111Z,90
2022-10-28T02:11:12.556Z,89
2022-10-28T02:12:21.755Z,89
2022-10-28T02:13:31.048Z,89
2022-10-28T02:14:35.610Z,89
2022-10-28T02:15:40.744Z,89
2022-10-28T02:16:48.111Z,89
2022-10-28T02:17:52.844Z,89
2022-10-28T02:19:02.096Z,88
2022-10-28T02:20:11.764Z,89
2022-10-28T02:21:26.696Z,89
2022-10-28T02:22:36.418Z,89
2022-10-28T02:23:45.892Z,89
2022-10-28T02:24:56.151Z,89
2022-10-28T02:26:06.913Z,89
2022-10-28T02:27:19.256Z,90
2022-10-28T02:28:33.964Z,90
2022-10-28T02:29:43.665Z,90
2022-10-28T02:30:48.192Z,90
2022-10-28T02:31:52.791Z,90
2022-10-28T02:32:57.689Z,89
2022-10-28T02:34:02.279Z,89
2022-10-28T02:35:06.625Z,89
2022-10-28T02:36:16.164Z,89
2022-10-28T02:37:20.807Z,89
2022-10-28T02:38:25.536Z,89
2022-10-28T02:39:32.735Z,89
2022-10-28T02:40:37.351Z,89
2022-10-28T02:41:41.837Z,89
2022-10-28T02:42:54.109Z,89
2022-10-28T02:43:58.447Z,89
2022-10-28T02:45:03.576Z,89
2022-10-28T02:46:13.183Z,89
2022-10-28T02:47:17.383Z,89
2022-10-28T02:48:22.044Z,89
2022-10-28T02:49:26.884Z,88
2022-10-28T02:50:31.834Z,89
2022-10-28T02:51:36.320Z,89
2022-10-28T02:52:46.260Z,89
2022-10-28T02:53:50.820Z,89
2022-10-28T02:55:00.436Z,89
2022-10-28T02:56:04.879Z,89
2022-10-28T02:57:09.456Z,89
2022-10-28T02:58:17.332Z,89
2022-10-28T02:59:21.820Z,89
2022-10-28T03:00:26.468Z,89
2022-10-28T03:01:30.973Z,89
2022-10-28T03:02:35.556Z,89
2022-10-28T03:03:40.071Z,89
2022-10-28T03:04:44.832Z,89
2022-10-28T03:05:49.376Z,89
2022-10-28T03:06:53.905Z,89
2022-10-28T03:07:58.332Z,89
2022-10-28T03:09:02.737Z,89
2022-10-28T03:10:07.328Z,89
2022-10-28T03:11:11.821Z,89
2022-10-28T03:12:16.647Z,89
2022-10-28T03:13:20.984Z,89
2022-10-28T03:14:25.576Z,89
2022-10-28T03:15:30.591Z,89
2022-10-28T03:16:35.284Z,89
2022-10-28T03:17:39.945Z,90
2022-10-28T03:18:44.431Z,89
2022-10-28T03:19:49.228Z,89
2022-10-28T03:20:55.309Z,89
2022-10-28T03:21:58.304Z,88
2022-10-28T03:23:02.700Z,88
2022-10-28T03:24:07.491Z,88
2022-10-28T03:25:11.831Z,88
2022-10-28T03:26:16.148Z,89
2022-10-28T03:27:20.747Z,89
2022-10-28T03:28:25.560Z,89
2022-10-28T03:29:29.939Z,89
2022-10-28T03:30:34.455Z,89
2022-10-28T03:31:39.008Z,89
2022-10-28T03:32:44.223Z,89
2022-10-28T03:33:48.695Z,89
2022-10-28T03:34:53.286Z,89
2022-10-28T03:35:57.852Z,89
2022-10-28T03:37:02.591Z,89
2022-10-28T03:38:07.335Z,89
2022-10-28T03:39:11.911Z,89
2022-10-28T03:40:16.457Z,89
2022-10-28T03:41:21.148Z,89
2022-10-28T03:42:25.341Z,89
2022-10-28T03:43:30.196Z,89
2022-10-28T03:44:34.808Z,89
2022-10-28T03:45:39.108Z,89
2022-10-28T03:46:43.719Z,89
2022-10-28T03:47:49.000Z,89
2022-10-28T03:48:53.484Z,90
2022-10-28T03:49:58.055Z,89
2022-10-28T03:51:02.500Z,89
2022-10-28T03:52:07.119Z,89
2022-10-28T03:53:11.700Z,89
2022-10-28T03:54:17.027Z,89
2022-10-28T03:55:21.435Z,89
2022-10-28T03:56:25.848Z,89
2022-10-28T03:57:29.991Z,89
2022-10-28T03:58:36.211Z,89
2022-10-28T03:59:38.804Z,89
2022-10-28T04:00:43.360Z,89
2022-10-28T04:01:50.467Z,89
2022-10-28T04:02:54.988Z,89
2022-10-28T04:03:59.402Z,89
2022-10-28T04:05:04.096Z,89
2022-10-28T04:06:09.176Z,89
2022-10-28T04:07:13.503Z,89
2022-10-28T04:08:18.041Z,89
2022-10-28T04:09:22.676Z,89
2022-10-28T04:10:27.167Z,90
2022-10-28T04:11:31.840Z,89
2022-10-28T04:12:36.860Z,89
2022-10-28T04:13:41.764Z,89
2022-10-28T04:14:46.604Z,89
2022-10-28T04:15:51.455Z,89
2022-10-28T04:16:56.120Z,89
2022-10-28T04:18:00.619Z,89
2022-10-28T04:19:05.070Z,89
2022-10-28T04:20:09.616Z,89
2022-10-28T04:21:14.491Z,89
2022-10-28T04:22:19.435Z,89
2022-10-28T04:23:23.972Z,89
2022-10-28T04:24:28.775Z,89
2022-10-28T04:25:33.603Z,89
2022-10-28T04:26:38.685Z,89
2022-10-28T04:27:43.432Z,89
2022-10-28T04:28:48.045Z,89
2022-10-28T04:29:52.902Z,89
2022-10-28T04:30:57.273Z,88
2022-10-28T04:32:02.330Z,89
2022-10-28T04:33:06.960Z,88
2022-10-28T04:34:11.513Z,88
2022-10-28T04:35:16.011Z,88
2022-10-28T04:36:20.703Z,88
2022-10-28T04:37:25.367Z,89
2022-10-28T04:38:30.242Z,89
2022-10-28T04:39:34.805Z,89
2022-10-28T04:40:38.927Z,89
2022-10-28T04:41:43.335Z,89
2022-10-28T04:42:47.779Z,89
2022-10-28T04:43:52.471Z,89
2022-10-28T04:44:57.058Z,89
2022-10-28T04:46:01.709Z,89
2022-10-28T04:47:06.226Z,90
2022-10-28T04:48:10.836Z,90
2022-10-28T04:49:15.296Z,90
2022-10-28T04:50:19.848Z,90
2022-10-28T04:51:25.455Z,89
2022-10-28T04:52:31.079Z,89
2022-10-28T04:53:35.660Z,89
2022-10-28T04:54:40.362Z,89
2022-10-28T04:55:45.047Z,89
2022-10-28T04:56:49.442Z,89
2022-10-28T04:57:54.021Z,89
2022-10-28T04:58:58.657Z,90
2022-10-28T05:00:03.393Z,90
2022-10-28T05:01:08.245Z,90
2022-10-28T05:02:12.543Z,90
2022-10-28T05:03:16.972Z,89
2022-10-28T05:04:21.179Z,89
2022-10-28T05:05:25.957Z,90
2022-10-28T05:06:30.279Z,90
2022-10-28T05:07:34.512Z,89
2022-10-28T05:08:38.915Z,89
2022-10-28T05:09:43.147Z,90
2022-10-28T05:10:47.819Z,90
2022-10-28T05:11:52.287Z,89
2022-10-28T05:12:57.039Z,89
2022-10-28T05:14:01.587Z,89
2022-10-28T05:15:06.175Z,89
2022-10-28T05:16:10.879Z,89
2022-10-28T05:17:15.524Z,89
2022-10-28T05:18:20.154Z,89
2022-10-28T05:19:24.439Z,89
2022-10-28T05:20:28.964Z,89
2022-10-28T05:21:33.199Z,89
2022-10-28T05:22:37.928Z,89
2022-10-28T05:23:49.976Z,89
2022-10-28T05:24:54.507Z,89
2022-10-28T05:25:58.878Z,89
2022-10-28T05:27:03.319Z,89
2022-10-28T05:28:07.917Z,88
2022-10-28T05:29:12.583Z,88
2022-10-28T05:30:17.168Z,89
2022-10-28T05:31:21.711Z,89
2022-10-28T05:32:26.732Z,89
2022-10-28T05:33:30.987Z,89
2022-10-28T05:34:35.547Z,89
2022-10-28T05:35:40.039Z,90
2022-10-28T05:36:44.299Z,89
2022-10-28T05:37:48.919Z,89
2022-10-28T05:38:53.410Z,90
2022-10-28T05:39:58.099Z,89
2022-10-28T05:41:02.833Z,89
2022-10-28T05:42:07.076Z,89
2022-10-28T05:43:11.367Z,89
2022-10-28T05:44:15.791Z,89
2022-10-28T05:45:20.136Z,89
2022-10-28T05:46:24.475Z,89
2022-10-28T05:47:28.631Z,89
2022-10-28T05:48:33.799Z,89
2022-10-28T05:49:38.451Z,89
2022-10-28T05:50:43.080Z,89
2022-10-28T05:51:47.624Z,89
2022-10-28T05:52:52.084Z,89
2022-10-28T05:53:56.239Z,89
2022-10-28T05:55:01.327Z,89
2022-10-28T05:56:05.997Z,89
2022-10-28T05:57:10.661Z,89
2022-10-28T05:58:15.147Z,89
2022-10-28T05:59:19.811Z,89
2022-10-28T06:00:24.496Z,89
2022-10-28T06:01:29.133Z,89
2022-10-28T06:02:33.760Z,89
2022-10-28T06:03:38.489Z,89
2022-10-28T06:04:42.915Z,89
2022-10-28T06:05:47.675Z,89
2022-10-28T06:06:52.080Z,89
2022-10-28T06:07:56.606Z,89
2022-10-28T06:09:01.462Z,89
2022-10-28T06:10:05.848Z,89
2022-10-28T06:11:09.182Z,89
2022-10-28T06:12:13.588Z,89
2022-10-28T06:13:18.085Z,89
2022-10-28T06:14:22.785Z,90
2022-10-28T06:15:27.570Z,89
2022-10-28T06:16:32.281Z,89
2022-10-28T06:17:36.697Z,89
2022-10-28T06:18:41.342Z,89
2022-10-28T06:19:45.944Z,89
2022-10-28T06:20:50.353Z,89
2022-10-28T06:21:58.723Z,89
2022-10-28T06:23:03.096Z,89
2022-10-28T06:24:11.270Z,90
2022-10-28T06:25:12.505Z,89
2022-10-28T06:26:17.474Z,89
2022-10-28T06:27:22.778Z,89
2022-10-28T06:28:27.260Z,89
2022-10-28T06:29:31.820Z,89
2022-10-28T06:30:36.422Z,89
2022-10-28T06:31:40.979Z,89
2022-10-28T06:32:45.815Z,89
2022-10-28T06:33:50.373Z,89
2022-10-28T06:34:54.894Z,89
2022-10-28T06:35:59.534Z,89
2022-10-28T06:37:03.984Z,89
2022-10-28T06:38:09.490Z,89
2022-10-28T06:39:13.786Z,89
2022-10-28T06:40:18.508Z,89
2022-10-28T06:41:26.193Z,89
2022-10-28T06:42:30.513Z,89
2022-10-28T06:43:35.261Z,89
2022-10-28T06:44:40.162Z,88
2022-10-28T06:45:44.451Z,89
2022-10-28T06:46:50.577Z,89
2022-10-28T06:47:55.228Z,89
2022-10-28T06:49:00.144Z,89
2022-10-28T06:50:04.469Z,89
2022-10-28T06:51:08.806Z,89
2022-10-28T06:52:13.000Z,89
2022-10-28T06:53:17.655Z,89
2022-10-28T06:54:22.132Z,89
2022-10-28T06:55:26.428Z,89
2022-10-28T06:56:30.945Z,89
2022-10-28T06:57:35.390Z,89
2022-10-28T06:58:39.616Z,89
2022-10-28T06:59:44.316Z,89
2022-10-28T07:00:48.702Z,89
2022-10-28T07:01:53.268Z,88
2022-10-28T07:02:57.760Z,88
2022-10-28T07:04:02.128Z,88
2022-10-28T07:05:06.796Z,89
2022-10-28T07:06:11.409Z,88
2022-10-28T07:07:16.434Z,89
2022-10-28T07:08:21.016Z,89
2022-10-28T07:09:25.568Z,88
2022-10-28T07:10:30.326Z,88
2022-10-28T07:11:34.931Z,88
2022-10-28T07:12:39.439Z,88
2022-10-28T07:13:44.360Z,89
2022-10-28T07:14:48.554Z,88
2022-10-28T07:15:53.091Z,88
2022-10-28T07:16:57.355Z,89
2022-10-28T07:18:01.941Z,88
2022-10-28T07:19:06.936Z,88
2022-10-28T07:20:11.202Z,88
2022-10-28T07:21:16.043Z,88
2022-10-28T07:22:24.768Z,89
2022-10-28T07:23:25.464Z,88
2022-10-28T07:24:29.994Z,88
2022-10-28T07:25:34.807Z,88
2022-10-28T07:26:39.278Z,88
2022-10-28T07:27:43.979Z,88
2022-10-28T07:28:48.497Z,88
2022-10-28T07:29:53.216Z,88
2022-10-28T07:30:57.668Z,87
2022-10-28T07:32:02.228Z,87
2022-10-28T07:33:07.125Z,88
2022-10-28T07:34:11.719Z,87
2022-10-28T07:35:16.159Z,88
2022-10-28T07:36:22.419Z,88
2022-10-28T07:37:27.240Z,88
2022-10-28T07:38:31.552Z,87
2022-10-28T07:40:40.509Z,88
2022-10-28T07:41:45.290Z,87
2022-10-28T07:42:50.160Z,88
2022-10-28T07:43:54.612Z,87
2022-10-28T07:44:59.208Z,87
2022-10-28T07:46:03.988Z,88
2022-10-28T07:47:08.388Z,88
2022-10-28T07:48:12.928Z,88
2022-10-28T07:49:17.533Z,87
2022-10-28T07:50:22.295Z,87
2022-10-28T07:51:26.695Z,87
2022-10-28T07:52:31.331Z,88
2022-10-28T07:53:36.090Z,88
2022-10-28T07:54:40.470Z,88
2022-10-28T07:55:44.950Z,88
2022-10-28T07:56:57.089Z,88
2022-10-28T07:58:01.537Z,88
2022-10-28T07:59:05.926Z,88
2022-10-28T08:00:10.516Z,88
2022-10-28T08:01:15.341Z,88
2022-10-28T08:02:19.699Z,88
2022-10-28T08:03:31.064Z,88
2022-10-28T08:04:29.048Z,88
2022-10-28T08:05:33.515Z,88
2022-10-28T08:06:38.190Z,88
2022-10-28T08:07:42.699Z,88
2022-10-28T08:08:47.288Z,88
2022-10-28T08:09:52.078Z,89
2022-10-28T08:10:56.719Z,88
2022-10-28T08:12:01.257Z,88
2022-10-28T08:13:05.724Z,89
2022-10-28T08:14:10.711Z,88
2022-10-28T08:15:15.344Z,89
2022-10-28T08:16:19.530Z,89
2022-10-28T08:17:24.281Z,89
2022-10-28T08:18:28.760Z,88
2022-10-28T08:19:33.519Z,88
2022-10-28T08:20:37.907Z,88
2022-10-28T08:21:42.559Z,88
2022-10-28T08:22:47.066Z,89
2022-10-28T08:23:51.734Z,88
2022-10-28T08:24:56.393Z,89
2022-10-28T08:26:01.149Z,89
2022-10-28T08:27:05.716Z,88
2022-10-28T08:28:10.492Z,89
2022-10-28T08:29:15.610Z,89
2022-10-28T08:30:20.027Z,88
2022-10-28T08:31:24.724Z,89
2022-10-28T08:32:28.905Z,89
2022-10-28T08:33:33.150Z,89
2022-10-28T08:34:39.399Z,88
2022-10-28T08:35:42.346Z,88
2022-10-28T08:36:51.993Z,88
2022-10-28T08:37:56.967Z,89
2022-10-28T08:39:01.050Z,88
2022-10-28T08:40:05.642Z,88
2022-10-28T08:41:10.270Z,88
2022-10-28T08:42:23.164Z,88
2022-10-28T08:43:40.200Z,88
2022-10-28T08:44:42.288Z,88
2022-10-28T08:45:51.937Z,88
2022-10-28T08:47:04.394Z,88
2022-10-28T08:48:14.153Z,88
2022-10-28T08:49:26.297Z,88
2022-10-28T08:50:30.749Z,88
2022-10-28T08:51:34.974Z,88
2022-10-28T08:52:39.674Z,87
2022-10-28T08:53:52.367Z,87
2022-10-28T08:54:59.520Z,87
2022-10-28T08:56:07.164Z,87
2022-10-28T08:57:17.821Z,87
2022-10-28T08:58:22.444Z,87
2022-10-28T08:59:26.903Z,87
2022-10-28T09:00:36.732Z,87
2022-10-28T09:01:41.619Z,87
2022-10-28T09:02:49.211Z,87
2022-10-28T09:03:58.539Z,86
2022-10-28T09:05:03.183Z,86
2022-10-28T09:06:15.904Z,86
2022-10-28T09:07:20.404Z,86
2022-10-28T09:08:25.029Z,86
2022-10-28T09:09:29.429Z,86
2022-10-28T09:10:33.927Z,86
2022-10-28T09:11:43.381Z,86
2022-10-28T09:12:47.845Z,86
2022-10-28T09:14:00.152Z,85
2022-10-28T09:15:10.280Z,86
2022-10-28T09:16:15.942Z,86
2022-10-28T09:17:24.255Z,85
2022-10-28T09:18:28.841Z,86
2022-10-28T09:19:41.276Z,86
2022-10-28T09:20:51.648Z,86
2022-10-28T09:21:56.185Z,85
2022-10-28T09:23:05.837Z,85
2022-10-28T09:24:09.932Z,85
2022-10-28T09:25:19.259Z,86
2022-10-28T09:26:26.850Z,85
2022-10-28T09:27:33.980Z,85
2022-10-28T09:28:41.725Z,86
2022-10-28T09:29:54.400Z,86
2022-10-28T09:31:06.625Z,86
2022-10-28T09:32:21.504Z,85
2022-10-28T09:40:37.603Z,85
2022-10-28T09:41:48.596Z,84
2022-10-28T09:43:07.637Z,84
2022-10-28T09:45:08.701Z,84
2022-10-28T09:49:04.329Z,83
2022-10-28T09:50:15.100Z,83
2022-10-28T09:54:41.564Z,83
2022-10-28T09:56:56.358Z,83
2022-10-28T09:58:23.043Z,82
2022-10-28T09:59:38.747Z,81
2022-10-28T10:00:51.550Z,81
2022-10-28T10:02:02.909Z,82
2022-10-28T10:03:23.128Z,82
2022-10-28T10:04:36.547Z,82
2022-10-28T10:05:56.227Z,82
2022-10-28T10:07:13.744Z,82
2022-10-28T10:08:32.923Z,82
2022-10-28T10:09:48.083Z,82
2022-10-28T10:11:01.028Z,82
2022-10-28T10:12:17.730Z,82
2022-10-28T10:13:46.094Z,82
2022-10-28T10:14:57.059Z,82
2022-10-28T10:16:15.231Z,82
2022-10-28T10:17:50.851Z,81
2022-10-28T10:18:56.825Z,81
2022-10-28T10:20:01.220Z,82
2022-10-28T10:21:13.519Z,82
2022-10-28T10:22:18.171Z,81
2022-10-28T10:23:30.883Z,81
2022-10-28T10:24:34.896Z,81
2022-10-28T10:25:38.971Z,81
2022-10-28T10:26:43.618Z,81
2022-10-28T10:27:48.172Z,81
2022-10-28T10:28:58.015Z,82
2022-10-28T10:30:02.615Z,81
2022-10-28T10:31:06.979Z,81
2022-10-28T10:32:11.608Z,81
2022-10-28T10:33:18.595Z,81
2022-10-28T10:34:22.743Z,81
2022-10-28T10:35:26.807Z,81
2022-10-28T10:36:31.139Z,81
2022-10-28T10:37:36.222Z,81
2022-10-28T10:38:43.227Z,82
2022-10-28T10:39:52.891Z,82
2022-10-28T10:41:00.125Z,83
2022-10-28T10:42:04.760Z,82
2022-10-28T10:43:16.900Z,82
2022-10-28T10:44:21.518Z,82
2022-10-28T10:45:25.975Z,82
2022-10-28T10:46:30.711Z,82
2022-10-28T10:47:35.260Z,82
2022-10-28T10:48:39.371Z,82
2022-10-28T10:49:43.923Z,81
2022-10-28T10:50:48.425Z,81
2022-10-28T10:51:52.528Z,82
2022-10-28T10:52:59.684Z,82
2022-10-28T10:54:03.821Z,83
2022-10-28T10:55:08.377Z,83
2022-10-28T10:56:13.208Z,82
2022-10-28T10:57:17.510Z,82
2022-10-28T10:58:22.287Z,82
2022-10-28T10:59:26.775Z,83
2022-10-28T11:00:31.462Z,83
2022-10-28T11:01:39.091Z,82
2022-10-28T11:02:43.770Z,82
2022-10-28T11:03:48.293Z,83
2022-10-28T11:04:55.312Z,83
2022-10-28T11:06:18.704Z,83
2022-10-28T11:07:04.491Z,84
2022-10-28T11:08:09.079Z,83
2022-10-28T11:10:18.303Z,83
2022-10-28T11:11:28.035Z,83
2022-10-28T11:12:38.130Z,82
2022-10-28T11:13:45.115Z,82
2022-10-28T11:14:47.393Z,83
2022-10-28T11:15:57.074Z,83
2022-10-28T11:17:01.586Z,82
2022-10-28T11:18:06.236Z,82
2022-10-28T11:19:18.893Z,82
2022-10-28T11:20:28.586Z,82
2022-10-28T11:21:38.274Z,82
2022-10-28T11:22:47.868Z,82
2022-10-28T11:23:55.044Z,82
2022-10-28T11:25:09.868Z,82
2022-10-28T11:26:24.720Z,82
2022-10-28T11:27:29.273Z,82
2022-10-28T11:28:33.748Z,82
2022-10-28T11:29:48.667Z,82
2022-10-28T11:30:53.321Z,81
2022-10-28T11:31:57.697Z,83
2022-10-28T11:33:24.587Z,82
2022-10-28T11:34:15.014Z,82
2022-10-28T11:35:29.889Z,82
2022-10-28T11:36:39.626Z,82
2022-10-28T11:37:52.350Z,82
2022-10-28T11:39:07.041Z,82
2022-10-28T11:40:16.713Z,82
2022-10-28T11:41:29.627Z,82
2022-10-28T11:42:39.298Z,81
2022-10-28T11:43:48.653Z,82
2022-10-28T11:44:51.458Z,82
2022-10-28T11:46:01.595Z,82
2022-10-28T11:47:16.226Z,81
2022-10-28T11:48:25.898Z,82
2022-10-28T11:49:35.584Z,82
2022-10-28T11:50:50.366Z,82
2022-10-28T11:52:00.111Z,82
2022-10-28T11:53:07.679Z,82
2022-10-28T11:54:22.267Z,82
2022-10-28T11:55:37.315Z,82
2022-10-28T11:56:51.980Z,82
2022-10-28T11:58:02.146Z,83
2022-10-28T11:59:16.939Z,83
2022-10-28T12:00:27.084Z,83
2022-10-28T12:01:42.091Z,82
2022-10-28T12:02:57.033Z,82
2022-10-28T12:04:01.188Z,82
2022-10-28T12:05:13.927Z,83
2022-10-28T12:06:18.602Z,83
2022-10-28T12:07:30.757Z,83
2022-10-28T12:08:43.515Z,83
2022-10-28T12:09:58.220Z,83
2022-10-28T12:11:13.035Z,82
2022-10-28T12:12:22.577Z,82
2022-10-28T12:13:34.396Z,82
2022-10-28T12:14:49.089Z,82
2022-10-28T12:15:58.685Z,82
2022-10-28T12:17:05.897Z,82
2022-10-28T12:18:20.733Z,82
2022-10-28T12:19:35.540Z,82
2022-10-28T12:20:40.262Z,82
2022-10-28T12:21:49.792Z,82
2022-10-28T12:23:02.055Z,82
2022-10-28T12:24:06.572Z,82
2022-10-28T12:25:16.799Z,81
2022-10-28T12:26:23.888Z,81
2022-10-28T12:27:30.863Z,81
2022-10-28T12:28:35.186Z,81
2022-10-28T12:29:45.004Z,81
2022-10-28T12:30:49.412Z,82
2022-10-28T12:31:54.256Z,81
2022-10-28T12:33:03.619Z,80
2022-10-28T12:34:07.716Z,81
2022-10-28T12:35:14.863Z,81
2022-10-28T12:36:22.713Z,81
2022-10-28T12:37:32.173Z,81
2022-10-28T12:38:39.370Z,81
2022-10-28T12:39:43.988Z,81
2022-10-28T12:40:48.493Z,81
2022-10-28T12:42:01.231Z,81
2022-10-28T12:43:05.673Z,81
2022-10-28T12:44:14.959Z,82
2022-10-28T12:45:22.069Z,81
2022-10-28T12:46:26.252Z,80
2022-10-28T12:59:21.258Z,80
2022-10-28T13:00:37.437Z,81
2022-10-28T13:01:57.218Z,81
2022-10-28T13:03:04.302Z,81
2022-10-28T13:05:16.863Z,81
2022-10-28T13:06:23.021Z,81
2022-10-28T13:07:45.578Z,80
2022-10-28T13:09:02.696Z,80
2022-10-28T13:12:35.427Z,81
2022-10-28T13:13:40.113Z,81
2022-10-28T13:14:54.770Z,81
2022-10-28T13:16:02.161Z,80
2022-10-28T13:17:11.694Z,80
2022-10-28T13:18:23.879Z,81
2022-10-28T13:19:33.719Z,81
2022-10-28T13:20:43.164Z,82
2022-10-28T13:21:52.869Z,81
2022-10-28T13:23:07.554Z,81
2022-10-28T13:24:17.464Z,81
2022-10-28T13:25:30.120Z,81
2022-10-28T13:26:43.040Z,81
2022-10-28T13:27:47.423Z,81
2022-10-28T13:28:57.214Z,81
2022-10-28T13:30:01.841Z,81
2022-10-28T13:31:06.976Z,82
2022-10-28T13:32:12.065Z,81
2022-10-28T13:33:26.716Z,82
2022-10-28T13:34:30.798Z,82
2022-10-28T13:35:35.924Z,82
2022-10-28T13:36:40.572Z,81
2022-10-28T13:37:45.173Z,82
2022-10-28T13:38:49.828Z,82
2022-10-28T13:39:56.981Z,82
2022-10-28T13:41:01.799Z,82
2022-10-28T13:42:06.200Z,82
2022-10-28T13:43:13.304Z,83
2022-10-28T13:44:20.307Z,83
2022-10-28T13:45:24.499Z,82
2022-10-28T13:46:39.156Z,82
2022-10-28T13:47:54.077Z,83
2022-10-28T13:49:03.693Z,83
2022-10-28T13:50:18.451Z,83
2022-10-28T13:51:22.529Z,83
2022-10-28T13:52:26.668Z,83
2022-10-28T13:53:30.932Z,83
2022-10-28T13:54:43.432Z,83
2022-10-28T13:55:47.498Z,83
2022-10-28T13:56:51.662Z,83
2022-10-28T13:57:56.640Z,83
2022-10-28T13:59:00.936Z,84
2022-10-28T14:00:13.412Z,84
2022-10-28T14:01:17.941Z,83
2022-10-28T14:02:35.464Z,83
2022-10-28T14:03:39.669Z,83
2022-10-28T14:04:44.160Z,83
2022-10-28T14:05:56.628Z,83
2022-10-28T14:07:01.007Z,83
2022-10-28T14:08:13.220Z,83
2022-10-28T14:09:25.500Z,83
2022-10-28T14:10:30.134Z,84
2022-10-28T14:11:34.643Z,84
2022-10-28T14:12:39.172Z,83
2022-10-28T14:13:43.887Z,84
2022-10-28T14:14:48.464Z,84
2022-10-28T14:15:58.321Z,84
2022-10-28T14:17:12.975Z,84
2022-10-28T14:18:42.025Z,84
2022-10-28T14:19:27.743Z,84
2022-10-28T14:20:32.086Z,84
2022-10-28T14:21:36.837Z,84
2022-10-28T14:22:43.969Z,84
2022-10-28T14:23:48.478Z,84
2022-10-28T14:25:03.262Z,84
2022-10-28T14:26:07.776Z,84
2022-10-28T14:27:12.066Z,84
2022-10-28T14:28:16.955Z,85
2022-10-28T14:29:29.289Z,85
2022-10-28T14:30:45.691Z,84
2022-10-28T14:31:58.775Z,85
2022-10-28T14:33:03.016Z,85
2022-10-28T14:34:12.570Z,85
2022-10-28T14:35:16.675Z,85
2022-10-28T14:36:21.372Z,85
2022-10-28T14:37:31.126Z,85
2022-10-28T14:38:41.638Z,85
2022-10-28T14:39:54.427Z,85
2022-10-28T14:41:04.060Z,84
2022-10-28T14:42:18.912Z,85
2022-10-28T14:43:31.508Z,85
2022-10-28T14:44:44.266Z,85
2022-10-28T14:45:59.073Z,85
2022-10-28T14:47:08.798Z,85
2022-10-28T14:48:18.628Z,85
2022-10-28T14:49:22.972Z,86
2022-10-28T14:50:32.685Z,85
2022-10-28T14:51:39.825Z,85
2022-10-28T14:52:44.645Z,85
2022-10-28T14:53:49.120Z,85
2022-10-28T14:54:56.232Z,85
2022-10-28T14:56:00.721Z,85
2022-10-28T14:57:05.393Z,85
2022-10-28T14:58:09.940Z,85
2022-10-28T14:59:22.697Z,85
2022-10-28T15:00:26.802Z,86
2022-10-28T15:01:31.441Z,86
2022-10-28T15:02:38.674Z,85
2022-10-28T15:03:43.177Z,85
2022-10-28T15:04:52.724Z,85
2022-10-28T15:06:07.736Z,86
2022-10-28T15:07:22.344Z,86
2022-10-28T15:08:26.984Z,86
2022-10-28T15:09:31.692Z,86
2022-10-28T15:10:37.413Z,86
2022-10-28T15:11:41.218Z,86
2022-10-28T15:12:45.736Z,86
2022-10-28T15:13:49.793Z,86
2022-10-28T15:14:53.883Z,86
2022-10-28T15:15:58.321Z,86
2022-10-28T15:17:02.592Z,86
2022-10-28T15:18:12.260Z,86
2022-10-28T15:19:25.095Z,86
2022-10-28T15:20:29.668Z,87
2022-10-28T15:21:33.856Z,86
2022-10-28T15:22:38.363Z,86
2022-10-28T15:23:42.978Z,86
2022-10-28T15:24:47.405Z,87
2022-10-28T15:25:57.088Z,87
2022-10-28T15:27:11.989Z,86
2022-10-28T15:28:16.691Z,86
2022-10-28T15:29:21.256Z,87
2022-10-28T15:30:25.777Z,87
2022-10-28T15:31:30.423Z,87
2022-10-28T15:32:34.979Z,87
2022-10-28T15:33:39.711Z,87
2022-10-28T15:34:44.269Z,86
2022-10-28T15:35:48.813Z,87
2022-10-28T15:36:53.549Z,87
2022-10-28T15:37:58.232Z,87
2022-10-28T15:39:02.690Z,87
2022-10-28T15:40:11.365Z,86
2022-10-28T15:41:22.511Z,87
2022-10-28T15:42:27.098Z,87
2022-10-28T15:43:41.912Z,87
2022-10-28T15:44:46.422Z,87
2022-10-28T15:45:50.968Z,87
2022-10-28T15:46:55.820Z,87
2022-10-28T15:48:00.171Z,87
2022-10-28T15:49:04.640Z,87
2022-10-28T15:50:08.794Z,87
2022-10-28T15:51:16.011Z,88
2022-10-28T15:52:20.403Z,87
2022-10-28T15:53:24.555Z,87
2022-10-28T15:54:31.695Z,86
2022-10-28T15:56:02.228Z,87
2022-10-28T15:56:40.951Z,87
2022-10-28T15:57:53.687Z,87
2022-10-28T15:58:58.287Z,87
2022-10-28T16:00:12.807Z,87
2022-10-28T16:01:23.713Z,87
2022-10-28T16:02:27.827Z,87
2022-10-28T16:03:35.057Z,87
2022-10-28T16:04:44.520Z,87
2022-10-28T16:05:48.675Z,87
2022-10-28T16:06:53.364Z,88
2022-10-28T16:07:57.991Z,87
2022-10-28T16:09:04.974Z,88
2022-10-28T16:10:19.751Z,87
2022-10-28T16:11:24.335Z,87
2022-10-28T16:12:28.878Z,88
2022-10-28T16:13:33.622Z,88
2022-10-28T16:14:38.098Z,88
2022-10-28T16:15:42.630Z,88
2022-10-28T16:16:46.707Z,88
2022-10-28T16:17:51.378Z,88
2022-10-28T16:18:55.570Z,87
2022-10-28T16:20:02.855Z,88
2022-10-28T16:21:14.947Z,88
2022-10-28T16:22:19.379Z,87
2022-10-28T16:23:23.574Z,87
2022-10-28T16:24:28.198Z,87